createdAt,value
2022-08-23T00:00:46.997Z,5.63
2022-08-23T00:01:52.467Z,7.95
2022-08-23T00:02:56.242Z,5.60
2022-08-23T00:04:01.303Z,7.47
2022-08-23T00:05:08.829Z,7.40
2022-08-23T00:06:11.836Z,6.30
2022-08-23T00:07:15.093Z,8.10
2022-08-23T00:08:19.681Z,8.50
2022-08-23T00:09:23.631Z,7.90
2022-08-23T00:10:25.553Z,8.30
2022-08-23T00:11:39.933Z,6.32
2022-08-23T00:12:43.654Z,7.63
2022-08-23T00:13:48.133Z,6.47
2022-08-23T00:14:55.609Z,7.47
2022-08-23T00:16:00.548Z,7.15
2022-08-23T00:17:02.879Z,6.60
2022-08-23T00:18:04.906Z,7.32
2022-08-23T00:19:08.375Z,7.60
2022-08-23T00:20:15.699Z,6.75
2022-08-23T00:21:17.679Z,6.68
2022-08-23T00:22:19.394Z,8.75
2022-08-23T00:23:21.956Z,8.07
2022-08-23T00:24:27.065Z,7.68
2022-08-23T00:25:28.830Z,7.40
2022-08-23T00:26:50.940Z,9.43
2022-08-23T00:27:52.928Z,8.02
2022-08-23T00:28:54.720Z,7.65
2022-08-23T00:29:57.417Z,8.50
2022-08-23T00:30:59.862Z,8.18
2022-08-23T00:32:02.093Z,6.68
2022-08-23T00:33:04.667Z,7.03
2022-08-23T00:34:06.552Z,7.88
2022-08-23T00:35:10.297Z,5.82
2022-08-23T00:36:12.280Z,7.75
2022-08-23T00:37:17.488Z,9.30
2022-08-23T00:38:34.388Z,7.43
2022-08-23T00:39:38.137Z,7.55
2022-08-23T00:40:39.948Z,6.85
2022-08-23T00:41:42.020Z,8.85
2022-08-23T00:43:09.915Z,7.30
2022-08-23T00:44:57.016Z,6.75
2022-08-23T00:46:32.804Z,9.23
2022-08-23T00:47:41.387Z,5.97
2022-08-23T00:48:45.961Z,7.43
2022-08-23T00:49:55.196Z,6.50
2022-08-23T00:51:16.090Z,7.68
2022-08-23T00:52:22.976Z,7.60
2022-08-23T00:53:29.024Z,7.00
2022-08-23T00:54:32.112Z,8.75
2022-08-23T00:55:35.119Z,6.15
2022-08-23T00:56:39.374Z,7.80
2022-08-23T00:57:42.496Z,7.43
2022-08-23T00:58:49.575Z,6.70
2022-08-23T00:59:51.353Z,7.28
2022-08-23T01:00:55.307Z,6.20
2022-08-23T01:01:57.790Z,6.75
2022-08-23T01:02:59.922Z,7.40
2022-08-23T01:04:04.782Z,9.00
2022-08-23T01:05:07.881Z,6.25
2022-08-23T01:06:18.739Z,6.95
2022-08-23T01:07:41.718Z,6.80
2022-08-23T01:08:49.452Z,7.30
2022-08-23T01:09:55.395Z,6.35
2022-08-23T01:11:08.844Z,5.30
2022-08-23T01:12:32.243Z,8.15
2022-08-23T01:13:47.046Z,6.28
2022-08-23T01:14:58.489Z,6.72
2022-08-23T01:16:09.731Z,6.53
2022-08-23T01:17:29.361Z,7.95
2022-08-23T01:18:32.533Z,7.35
2022-08-23T01:19:46.663Z,5.88
2022-08-23T01:20:56.389Z,6.97
2022-08-23T01:24:18.060Z,7.93
2022-08-23T01:25:34.882Z,5.82
2022-08-23T01:26:36.963Z,7.38
2022-08-23T01:27:40.196Z,8.18
2022-08-23T01:28:45.903Z,7.05
2022-08-23T01:29:47.800Z,7.00
2022-08-23T01:30:49.723Z,8.00
2022-08-23T01:31:52.066Z,7.70
2022-08-23T01:32:58.699Z,6.32
2022-08-23T01:34:11.294Z,6.07
2022-08-23T01:35:14.443Z,6.15
2022-08-23T01:36:17.188Z,8.40
2022-08-23T01:37:21.174Z,6.55
2022-08-23T01:38:24.302Z,7.85
2022-08-23T01:39:26.037Z,6.18
2022-08-23T01:40:28.050Z,7.60
2022-08-23T01:41:29.942Z,6.43
2022-08-23T01:42:31.871Z,7.93
2022-08-23T01:43:33.693Z,6.82
2022-08-23T01:44:35.612Z,8.23
2022-08-23T01:45:37.521Z,7.10
2022-08-23T01:46:46.133Z,8.82
2022-08-23T01:47:48.069Z,8.00
2022-08-23T01:48:54.757Z,6.65
2022-08-23T01:49:57.075Z,7.90
2022-08-23T01:51:00.136Z,7.55
2022-08-23T01:52:01.987Z,8.18
2022-08-23T01:53:04.339Z,8.57
2022-08-23T01:54:06.485Z,8.45
2022-08-23T01:55:10.603Z,8.70
2022-08-23T01:56:14.219Z,8.05
2022-08-23T01:57:16.114Z,9.30
2022-08-23T01:58:17.860Z,8.45
2022-08-23T01:59:19.833Z,7.35
2022-08-23T02:00:25.261Z,10.15
2022-08-23T02:01:28.474Z,8.07
2022-08-23T02:02:30.214Z,9.80
2022-08-23T02:03:33.283Z,8.00
2022-08-23T02:04:36.089Z,7.85
2022-08-23T02:05:40.585Z,9.70
2022-08-23T02:06:42.317Z,7.97
2022-08-23T02:07:44.411Z,9.73
2022-08-23T02:09:03.554Z,9.18
2022-08-23T02:10:11.804Z,8.93
2022-08-23T02:11:19.303Z,7.28
2022-08-23T02:12:21.306Z,7.35
2022-08-23T02:13:23.470Z,6.88
2022-08-23T02:14:28.153Z,8.65
2022-08-23T02:15:32.720Z,8.93
2022-08-23T02:16:53.690Z,7.50
2022-08-23T02:18:06.604Z,9.02
2022-08-23T02:19:11.762Z,7.78
2022-08-23T02:20:14.352Z,8.65
2022-08-23T02:21:16.365Z,6.60
2022-08-23T02:22:19.166Z,7.38
2022-08-23T02:23:22.934Z,7.25
2022-08-23T02:24:26.049Z,9.63
2022-08-23T02:25:27.824Z,9.63
2022-08-23T02:26:30.951Z,8.38
2022-08-23T02:27:33.282Z,8.73
2022-08-23T02:28:37.083Z,8.07
2022-08-23T02:29:39.391Z,10.20
2022-08-23T02:30:41.644Z,8.23
2022-08-23T02:31:48.997Z,8.90
2022-08-23T02:32:51.978Z,9.15
2022-08-23T02:36:33.085Z,10.20
2022-08-23T02:37:36.539Z,8.55
2022-08-23T02:38:38.511Z,7.28
2022-08-23T02:39:42.332Z,7.70
2022-08-23T02:40:44.813Z,8.38
2022-08-23T02:41:46.928Z,7.05
2022-08-23T02:42:49.072Z,7.95
2022-08-23T02:43:54.558Z,7.55
2022-08-23T02:44:56.657Z,8.13
2022-08-23T02:45:58.554Z,8.57
2022-08-23T02:47:01.834Z,6.78
2022-08-23T02:48:04.964Z,8.77
2022-08-23T02:49:07.178Z,7.30
2022-08-23T02:50:09.858Z,8.07
2022-08-23T02:51:12.128Z,7.97
2022-08-23T02:52:14.016Z,7.88
2022-08-23T02:53:17.499Z,7.22
2022-08-23T02:54:19.415Z,8.15
2022-08-23T02:55:22.688Z,7.15
2022-08-23T02:56:24.524Z,7.25
2022-08-23T02:57:27.262Z,7.47
2022-08-23T02:58:32.005Z,7.63
2022-08-23T02:59:34.564Z,8.93
2022-08-23T03:00:38.821Z,8.73
2022-08-23T03:01:40.873Z,7.75
2022-08-23T03:02:43.506Z,8.27
2022-08-23T03:03:45.863Z,7.82
2022-08-23T03:04:50.496Z,7.50
2022-08-23T03:05:52.605Z,7.40
2022-08-23T03:06:55.006Z,8.68
2022-08-23T03:07:57.115Z,8.32
2022-08-23T03:09:00.026Z,8.30
2022-08-23T03:10:02.724Z,7.70
2022-08-23T03:11:11.957Z,8.50
2022-08-23T03:12:13.951Z,8.00
2022-08-23T03:13:16.365Z,8.45
2022-08-23T03:14:18.202Z,8.60
2022-08-23T03:15:20.286Z,8.00
2022-08-23T03:16:23.550Z,9.18
2022-08-23T03:17:25.800Z,7.65
2022-08-23T03:18:27.506Z,9.52
2022-08-23T03:19:29.499Z,8.15
2022-08-23T03:20:31.404Z,6.63
2022-08-23T03:21:33.307Z,8.85
2022-08-23T03:22:37.885Z,7.35
2022-08-23T03:23:40.869Z,8.43
2022-08-23T03:24:42.801Z,11.55
2022-08-23T03:25:44.559Z,7.45
2022-08-23T03:26:48.409Z,9.25
2022-08-23T03:27:50.301Z,10.48
2022-08-23T03:28:52.441Z,8.40
2022-08-23T03:29:55.559Z,6.72
2022-08-23T03:30:57.699Z,8.43
2022-08-23T03:31:59.956Z,7.43
2022-08-23T03:33:02.111Z,6.50
2022-08-23T03:34:05.455Z,7.97
2022-08-23T03:35:15.097Z,7.20
2022-08-23T03:36:17.782Z,9.02
2022-08-23T03:37:19.780Z,8.77
2022-08-23T03:38:21.489Z,8.60
2022-08-23T03:39:23.686Z,7.40
2022-08-23T03:40:26.100Z,8.60
2022-08-23T03:41:27.835Z,8.63
2022-08-23T03:42:31.280Z,9.57
2022-08-23T03:43:33.046Z,9.23
2022-08-23T03:44:34.898Z,10.10
2022-08-23T03:45:36.962Z,9.30
2022-08-23T03:46:39.132Z,11.32
2022-08-23T03:47:40.751Z,8.63
2022-08-23T03:48:42.702Z,9.57
2022-08-23T03:49:44.385Z,8.75
2022-08-23T03:50:46.326Z,8.15
2022-08-23T03:51:48.056Z,9.35
2022-08-23T03:52:49.994Z,8.00
2022-08-23T03:53:52.841Z,8.35
2022-08-23T03:55:00.537Z,9.73
2022-08-23T03:56:02.488Z,7.15
2022-08-23T03:57:07.216Z,7.72
2022-08-23T03:58:09.044Z,9.07
2022-08-23T03:59:11.636Z,6.82
2022-08-23T04:00:20.458Z,7.50
2022-08-23T04:01:28.437Z,9.25
2022-08-23T04:02:30.852Z,8.75
2022-08-23T04:03:34.551Z,7.80
2022-08-23T04:04:37.784Z,9.40
2022-08-23T04:05:39.449Z,8.10
2022-08-23T04:06:41.670Z,8.25
2022-08-23T04:07:43.755Z,9.82
2022-08-23T04:08:45.828Z,8.95
2022-08-23T04:09:50.860Z,9.45
2022-08-23T04:10:55.152Z,7.53
2022-08-23T04:11:57.950Z,9.85
2022-08-23T04:12:59.713Z,9.60
2022-08-23T04:14:01.628Z,7.00
2022-08-23T04:15:04.858Z,7.00
2022-08-23T04:16:07.162Z,7.82
2022-08-23T04:17:08.837Z,8.50
2022-08-23T04:18:12.830Z,7.70
2022-08-23T04:19:15.444Z,7.05
2022-08-23T04:20:17.811Z,8.25
2022-08-23T04:21:22.458Z,6.82
2022-08-23T04:22:24.779Z,7.82
2022-08-23T04:23:27.978Z,7.28
2022-08-23T04:24:30.329Z,7.55
2022-08-23T04:25:35.497Z,6.95
2022-08-23T04:26:37.651Z,7.75
2022-08-23T04:27:39.495Z,7.05
2022-08-23T04:28:41.555Z,7.90
2022-08-23T04:29:46.101Z,8.93
2022-08-23T04:30:48.391Z,7.85
2022-08-23T04:31:51.800Z,9.70
2022-08-23T04:32:55.803Z,8.93
2022-08-23T04:33:57.897Z,6.30
2022-08-23T04:35:04.574Z,7.68
2022-08-23T04:36:06.600Z,7.20
2022-08-23T04:37:12.611Z,7.50
2022-08-23T04:38:24.371Z,6.93
2022-08-23T04:39:27.463Z,6.78
2022-08-23T04:40:47.664Z,7.57
2022-08-23T04:42:10.213Z,8.63
2022-08-23T04:43:14.925Z,8.70
2022-08-23T04:44:17.293Z,7.53
2022-08-23T04:45:19.092Z,8.35
2022-08-23T04:46:20.917Z,9.68
2022-08-23T04:47:31.687Z,8.30
2022-08-23T04:48:34.012Z,7.65
2022-08-23T04:49:35.877Z,7.72
2022-08-23T04:50:37.630Z,7.22
2022-08-23T04:51:39.417Z,7.38
2022-08-23T04:52:41.418Z,8.45
2022-08-23T04:53:43.539Z,7.38
2022-08-23T04:54:46.736Z,7.72
2022-08-23T04:55:49.270Z,5.68
2022-08-23T04:56:51.945Z,9.20
2022-08-23T04:57:55.047Z,7.78
2022-08-23T04:58:57.487Z,7.00
2022-08-23T04:59:59.888Z,11.05
2022-08-23T05:01:05.119Z,8.75
2022-08-23T05:02:07.513Z,6.70
2022-08-23T05:03:10.651Z,7.43
2022-08-23T05:04:12.451Z,8.55
2022-08-23T05:05:14.703Z,7.93
2022-08-23T05:06:17.028Z,6.68
2022-08-23T05:07:19.395Z,7.43
2022-08-23T05:08:22.677Z,7.90
2022-08-23T05:09:25.405Z,8.05
2022-08-23T05:10:28.863Z,8.18
2022-08-23T05:11:30.743Z,10.02
2022-08-23T05:12:32.504Z,7.38
2022-08-23T05:13:35.112Z,9.15
2022-08-23T05:14:37.515Z,6.85
2022-08-23T05:15:40.855Z,11.82
2022-08-23T05:16:42.630Z,8.13
2022-08-23T05:17:44.521Z,7.75
2022-08-23T05:18:46.682Z,10.35
2022-08-23T05:19:48.592Z,8.88
2022-08-23T05:20:50.629Z,9.63
2022-08-23T05:21:56.802Z,8.77
2022-08-23T05:23:01.634Z,7.63
2022-08-23T05:24:03.924Z,7.03
2022-08-23T05:25:06.107Z,8.88
2022-08-23T05:26:08.335Z,9.32
2022-08-23T05:27:13.492Z,7.18
2022-08-23T05:28:22.445Z,7.80
2022-08-23T05:29:24.789Z,8.75
2022-08-23T05:30:29.176Z,7.60
2022-08-23T05:31:33.247Z,8.00
2022-08-23T05:32:35.136Z,8.68
2022-08-23T05:33:38.054Z,8.93
2022-08-23T05:34:40.241Z,9.48
2022-08-23T05:35:42.247Z,8.05
2022-08-23T05:36:48.105Z,8.23
2022-08-23T05:37:59.754Z,11.00
2022-08-23T05:39:03.256Z,9.05
2022-08-23T05:40:05.501Z,7.28
2022-08-23T05:41:09.856Z,10.30
2022-08-23T05:42:14.929Z,10.35
2022-08-23T05:43:19.448Z,9.63
2022-08-23T05:44:21.487Z,9.68
2022-08-23T05:45:23.646Z,11.13
2022-08-23T05:46:28.332Z,8.73
2022-08-23T05:47:32.748Z,9.95
2022-08-23T05:48:37.121Z,7.63
2022-08-23T05:49:40.455Z,8.00
2022-08-23T05:50:42.669Z,10.88
2022-08-23T05:51:44.451Z,10.60
2022-08-23T05:52:53.132Z,9.48
2022-08-23T05:54:13.531Z,11.68
2022-08-23T05:55:15.442Z,11.70
2022-08-23T05:56:27.498Z,10.00
2022-08-23T05:57:29.448Z,8.75
2022-08-23T05:58:31.197Z,8.98
2022-08-23T05:59:33.099Z,8.38
2022-08-23T06:00:37.385Z,10.88
2022-08-23T06:01:42.017Z,10.23
2022-08-23T06:02:44.604Z,9.38
2022-08-23T06:03:47.523Z,7.93
2022-08-23T06:04:50.992Z,11.82
2022-08-23T06:05:59.109Z,11.35
2022-08-23T06:07:00.930Z,13.15
2022-08-23T06:08:03.197Z,12.80
2022-08-23T06:09:08.404Z,14.10
2022-08-23T06:10:16.218Z,13.52
2022-08-23T06:11:25.006Z,9.85
2022-08-23T06:12:28.514Z,10.57
2022-08-23T06:13:31.169Z,8.48
2022-08-23T06:14:33.120Z,9.05
2022-08-23T06:15:34.852Z,9.30
2022-08-23T06:16:44.490Z,9.73
2022-08-23T06:17:47.224Z,9.23
2022-08-23T06:18:49.541Z,10.02
2022-08-23T06:19:51.414Z,8.38
2022-08-23T06:21:05.549Z,9.35
2022-08-23T06:22:07.257Z,8.80
2022-08-23T06:23:09.110Z,9.38
2022-08-23T06:24:14.829Z,10.65
2022-08-23T06:25:16.549Z,9.40
2022-08-23T06:26:28.068Z,9.25
2022-08-23T06:27:29.782Z,8.80
2022-08-23T06:28:32.127Z,9.48
2022-08-23T06:29:34.011Z,10.43
2022-08-23T06:30:39.831Z,8.52
2022-08-23T06:31:48.011Z,7.65
2022-08-23T06:32:50.732Z,7.05
2022-08-23T06:33:53.678Z,8.63
2022-08-23T06:35:14.740Z,10.85
2022-08-23T06:36:18.564Z,8.68
2022-08-23T06:37:20.369Z,7.57
2022-08-23T06:38:23.021Z,8.35
2022-08-23T06:39:29.731Z,7.55
2022-08-23T06:40:31.412Z,9.20
2022-08-23T06:41:33.818Z,8.32
2022-08-23T06:42:38.074Z,8.27
2022-08-23T06:43:41.097Z,7.15
2022-08-23T06:44:42.808Z,7.80
2022-08-23T06:45:44.621Z,8.02
2022-08-23T06:46:57.057Z,7.55
2022-08-23T06:47:58.780Z,7.15
2022-08-23T06:49:01.539Z,7.07
2022-08-23T06:50:04.716Z,6.65
2022-08-23T06:51:27.544Z,8.05
2022-08-23T06:52:29.600Z,6.38
2022-08-23T06:53:31.913Z,6.20
2022-08-23T06:54:36.312Z,8.10
2022-08-23T06:55:38.682Z,7.22
2022-08-23T06:56:42.895Z,7.55
2022-08-23T06:57:44.986Z,6.20
2022-08-23T06:58:47.036Z,6.28
2022-08-23T06:59:51.474Z,6.63
2022-08-23T07:00:57.184Z,7.80
2022-08-23T07:02:05.747Z,6.82
2022-08-23T07:03:07.728Z,6.28
2022-08-23T07:04:12.644Z,7.07
2022-08-23T07:05:14.328Z,8.63
2022-08-23T07:06:16.849Z,7.65
2022-08-23T07:07:19.229Z,8.50
2022-08-23T07:08:21.152Z,9.38
2022-08-23T07:09:23.560Z,8.13
2022-08-23T07:10:25.442Z,6.82
2022-08-23T07:11:31.506Z,7.13
2022-08-23T07:12:35.171Z,7.90
2022-08-23T07:13:36.847Z,6.72
2022-08-23T07:14:39.433Z,8.73
2022-08-23T07:15:41.081Z,8.40
2022-08-23T07:16:49.848Z,8.68
2022-08-23T07:17:51.585Z,9.65
2022-08-23T07:18:55.540Z,7.05
2022-08-23T07:19:58.447Z,7.13
2022-08-23T07:21:03.234Z,8.30
2022-08-23T07:22:06.619Z,6.70
2022-08-23T07:23:08.368Z,7.80
2022-08-23T07:24:10.576Z,7.20
2022-08-23T07:25:12.263Z,9.05
2022-08-23T07:26:16.926Z,8.82
2022-08-23T07:27:18.751Z,6.80
2022-08-23T07:28:20.498Z,6.80
2022-08-23T07:29:23.409Z,7.45
2022-08-23T07:30:25.595Z,8.38
2022-08-23T07:31:33.364Z,8.02
2022-08-23T07:32:35.477Z,6.80
2022-08-23T07:33:38.461Z,5.50
2022-08-23T07:34:41.176Z,7.40
2022-08-23T07:35:52.168Z,6.05
2022-08-23T07:36:54.533Z,7.88
2022-08-23T07:37:57.535Z,7.90
2022-08-23T07:39:00.383Z,9.05
2022-08-23T07:40:02.164Z,6.53
2022-08-23T07:41:04.365Z,7.25
2022-08-23T07:42:08.332Z,7.03
2022-08-23T07:43:25.683Z,7.80
2022-08-23T07:44:29.915Z,6.78
2022-08-23T07:45:35.758Z,6.38
2022-08-23T07:46:40.952Z,6.70
2022-08-23T07:47:46.830Z,6.95
2022-08-23T07:48:54.600Z,7.90
2022-08-23T07:49:56.738Z,6.72
2022-08-23T07:51:02.170Z,9.30
2022-08-23T07:52:04.343Z,7.60
2022-08-23T07:53:08.102Z,7.72
2022-08-23T07:54:25.767Z,11.90
2022-08-23T07:55:27.991Z,10.20
2022-08-23T07:56:29.733Z,6.45
2022-08-23T07:57:33.372Z,7.97
2022-08-23T07:58:35.188Z,8.48
2022-08-23T07:59:38.120Z,7.18
2022-08-23T08:00:39.829Z,8.00
2022-08-23T08:01:43.934Z,7.63
2022-08-23T08:02:46.401Z,7.00
2022-08-23T08:03:50.878Z,6.00
2022-08-23T08:04:52.598Z,8.63
2022-08-23T08:05:57.584Z,7.85
2022-08-23T08:07:19.215Z,8.45
2022-08-23T08:08:22.900Z,8.25
2022-08-23T08:09:24.602Z,7.55
2022-08-23T08:10:26.713Z,7.53
2022-08-23T08:11:34.827Z,8.98
2022-08-23T08:12:37.242Z,6.05
2022-08-23T08:13:40.810Z,8.05
2022-08-23T08:14:42.912Z,9.00
2022-08-23T08:15:44.642Z,6.80
2022-08-23T08:16:51.206Z,7.57
2022-08-23T08:17:53.795Z,7.30
2022-08-23T08:18:59.586Z,6.85
2022-08-23T08:20:01.542Z,7.32
2022-08-23T08:21:05.708Z,7.60
2022-08-23T08:22:08.297Z,7.68
2022-08-23T08:23:10.049Z,8.23
2022-08-23T08:24:14.140Z,10.05
2022-08-23T08:25:16.122Z,8.40
2022-08-23T08:26:22.172Z,8.63
2022-08-23T08:27:25.054Z,7.30
2022-08-23T08:28:29.506Z,7.65
2022-08-23T08:29:31.408Z,7.57
2022-08-23T08:30:33.125Z,8.45
2022-08-23T08:31:36.402Z,9.52
2022-08-23T08:32:46.692Z,7.28
2022-08-23T08:33:53.244Z,6.65
2022-08-23T08:34:55.380Z,9.75
2022-08-23T08:36:00.972Z,8.43
2022-08-23T08:37:04.825Z,7.75
2022-08-23T08:38:07.851Z,6.65
2022-08-23T08:39:13.187Z,8.32
2022-08-23T08:40:20.915Z,7.50
2022-08-23T08:41:40.935Z,8.65
2022-08-23T08:43:01.276Z,6.85
2022-08-23T08:44:19.745Z,7.72
2022-08-23T08:45:33.001Z,6.82
2022-08-23T08:46:45.184Z,7.05
2022-08-23T08:47:53.416Z,7.50
2022-08-23T08:48:59.465Z,7.40
2022-08-23T08:50:26.516Z,6.97
2022-08-23T08:51:42.582Z,7.20
2022-08-23T08:53:04.392Z,7.75
2022-08-23T08:54:27.488Z,7.78
2022-08-23T08:55:34.025Z,6.55
2022-08-23T08:56:39.650Z,7.75
2022-08-23T08:57:45.061Z,5.85
2022-08-23T08:58:59.096Z,6.22
2022-08-23T09:00:06.763Z,6.75
2022-08-23T09:01:08.930Z,6.25
2022-08-23T09:02:31.837Z,7.65
2022-08-23T09:03:36.117Z,5.53
2022-08-23T09:04:38.176Z,6.45
2022-08-23T09:05:56.389Z,5.32
2022-08-23T09:07:11.232Z,6.05
2022-08-23T09:08:40.679Z,6.45
2022-08-23T09:10:04.095Z,6.60
2022-08-23T09:11:15.968Z,5.55
2022-08-23T09:12:32.520Z,4.97
2022-08-23T09:13:56.301Z,6.40
2022-08-23T09:15:04.358Z,6.65
2022-08-23T09:16:09.255Z,6.03
2022-08-23T09:17:27.273Z,6.05
2022-08-23T09:18:34.520Z,5.82
2022-08-23T09:19:39.210Z,6.10
2022-08-23T09:20:43.227Z,5.90
2022-08-23T09:21:54.392Z,5.38
2022-08-23T09:23:22.255Z,7.40
2022-08-23T09:24:24.623Z,6.32
2022-08-23T09:25:26.440Z,6.93
2022-08-23T09:26:30.743Z,6.00
2022-08-23T09:27:33.036Z,5.05
2022-08-23T09:28:38.807Z,5.25
2022-08-23T09:30:01.353Z,6.13
2022-08-23T09:31:08.279Z,5.45
2022-08-23T09:32:27.461Z,5.43
2022-08-23T09:33:41.526Z,5.32
2022-08-23T09:34:46.116Z,6.20
2022-08-23T09:36:10.750Z,6.10
2022-08-23T09:37:20.866Z,6.00
2022-08-23T09:38:23.329Z,8.38
2022-08-23T09:39:33.185Z,7.75
2022-08-23T09:40:41.269Z,6.00
2022-08-23T09:41:43.791Z,5.40
2022-08-23T09:42:47.382Z,6.03
2022-08-23T09:43:50.176Z,6.05
2022-08-23T09:44:52.245Z,8.20
2022-08-23T09:45:57.583Z,5.88
2022-08-23T09:47:16.751Z,6.65
2022-08-23T09:48:45.217Z,6.78
2022-08-23T09:49:48.463Z,6.15
2022-08-23T09:50:54.828Z,5.30
2022-08-23T09:52:00.958Z,6.40
2022-08-23T09:53:15.408Z,5.88
2022-08-23T09:54:23.110Z,17.83
2022-08-23T09:55:31.696Z,5.07
2022-08-23T09:56:41.521Z,5.47
2022-08-23T09:57:48.046Z,7.22
2022-08-23T09:58:53.750Z,6.05
2022-08-23T10:00:00.507Z,7.30
2022-08-23T10:01:14.265Z,6.70
2022-08-23T10:02:27.380Z,4.30
2022-08-23T10:03:30.287Z,6.80
2022-08-23T10:04:43.877Z,5.70
2022-08-23T10:05:51.717Z,5.22
2022-08-23T10:06:55.776Z,6.35
2022-08-23T10:08:02.517Z,5.80
2022-08-23T10:09:07.397Z,6.80
2022-08-23T10:10:38.406Z,6.22
2022-08-23T10:11:45.383Z,5.95
2022-08-23T10:12:47.460Z,6.20
2022-08-23T10:13:51.915Z,6.25
2022-08-23T10:14:54.695Z,5.68
2022-08-23T10:16:02.290Z,5.85
2022-08-23T10:17:34.265Z,5.05
2022-08-23T10:18:46.546Z,6.20
2022-08-23T10:20:01.549Z,5.70
2022-08-23T10:21:21.158Z,6.05
2022-08-23T10:22:28.681Z,5.40
2022-08-23T10:23:43.756Z,5.28
2022-08-23T10:24:55.410Z,5.60
2022-08-23T10:26:01.330Z,6.65
2022-08-23T10:27:53.424Z,6.15
2022-08-23T10:29:35.233Z,6.03
2022-08-23T10:31:02.566Z,5.50
2022-08-23T10:32:25.658Z,6.15
2022-08-23T10:33:45.830Z,5.50
2022-08-23T10:34:51.048Z,5.40
2022-08-23T10:36:03.369Z,5.50
2022-08-23T10:37:43.709Z,5.43
2022-08-23T10:38:57.953Z,4.85
2022-08-23T10:40:17.420Z,4.45
2022-08-23T10:41:40.588Z,5.40
2022-08-23T10:43:13.755Z,5.55
2022-08-23T10:44:24.567Z,6.50
2022-08-23T10:45:35.309Z,6.53
2022-08-23T10:46:44.874Z,5.65
2022-08-23T10:48:12.943Z,5.20
2022-08-23T10:49:17.091Z,5.80
2022-08-23T10:50:20.805Z,5.20
2022-08-23T10:51:40.497Z,5.85
2022-08-23T10:52:56.558Z,5.53
2022-08-23T10:54:10.299Z,5.95
2022-08-23T10:55:35.407Z,6.45
2022-08-23T10:56:43.018Z,7.10
2022-08-23T10:57:53.756Z,6.38
2022-08-23T10:59:03.442Z,6.53
2022-08-23T11:00:17.202Z,5.95
2022-08-23T11:01:26.568Z,7.18
2022-08-23T11:02:51.494Z,5.70
2022-08-23T11:04:27.250Z,7.15
2022-08-23T11:05:32.845Z,6.05
2022-08-23T11:06:37.699Z,6.32
2022-08-23T11:07:41.598Z,6.32
2022-08-23T11:08:47.829Z,6.53
2022-08-23T11:09:58.754Z,5.90
2022-08-23T11:11:01.791Z,4.50
2022-08-23T11:12:11.086Z,5.22
2022-08-23T11:13:12.964Z,5.40
2022-08-23T11:14:33.543Z,7.13
2022-08-23T11:15:59.044Z,6.68
2022-08-23T11:17:10.606Z,7.35
2022-08-23T11:18:37.477Z,5.47
2022-08-23T11:19:56.238Z,6.65
2022-08-23T11:21:03.164Z,6.35
2022-08-23T11:22:29.586Z,6.22
2022-08-23T11:23:55.871Z,6.18
2022-08-23T11:25:00.115Z,7.15
2022-08-23T11:26:04.914Z,5.65
2022-08-23T11:27:07.633Z,5.25
2022-08-23T11:28:30.518Z,5.70
2022-08-23T11:29:33.048Z,6.68
2022-08-23T11:30:50.201Z,6.47
2022-08-23T11:32:25.042Z,6.40
2022-08-23T11:33:36.965Z,6.25
2022-08-23T11:34:51.138Z,4.95
2022-08-23T11:36:17.937Z,5.35
2022-08-23T11:37:19.868Z,6.68
2022-08-23T11:38:47.924Z,6.30
2022-08-23T11:39:58.874Z,5.90
2022-08-23T11:41:11.230Z,5.95
2022-08-23T11:42:19.195Z,7.40
2022-08-23T11:43:27.707Z,5.18
2022-08-23T11:44:41.578Z,6.10
2022-08-23T11:45:46.803Z,5.40
2022-08-23T11:46:55.467Z,6.40
2022-08-23T11:48:19.341Z,6.10
2022-08-23T11:49:30.754Z,5.68
2022-08-23T11:50:41.561Z,5.85
2022-08-23T11:52:03.356Z,6.53
2022-08-23T11:53:39.024Z,5.55
2022-08-23T11:54:52.808Z,7.35
2022-08-23T11:56:16.119Z,5.32
2022-08-23T11:57:55.406Z,5.38
2022-08-23T11:59:41.648Z,4.63
2022-08-23T12:01:07.604Z,7.30
2022-08-23T12:02:34.691Z,5.53
2022-08-23T12:03:56.962Z,6.40
2022-08-23T12:05:07.557Z,6.20
2022-08-23T12:06:32.210Z,5.40
2022-08-23T12:08:01.179Z,5.47
2022-08-23T12:09:13.851Z,5.32
2022-08-23T12:10:37.336Z,5.20
2022-08-23T12:12:01.230Z,8.10
2022-08-23T12:13:18.572Z,5.93
2022-08-23T12:14:32.338Z,5.55
2022-08-23T12:16:05.305Z,4.95
2022-08-23T12:17:16.900Z,6.45
2022-08-23T12:18:24.121Z,6.20
2022-08-23T12:19:51.308Z,4.95
2022-08-23T12:20:59.183Z,5.32
2022-08-23T12:22:13.265Z,5.35
2022-08-23T12:23:19.101Z,6.75
2022-08-23T12:24:40.186Z,4.88
2022-08-23T12:25:43.223Z,5.25
2022-08-23T12:26:59.094Z,6.10
2022-08-23T12:28:33.547Z,6.30
2022-08-23T12:30:03.309Z,7.20
2022-08-23T12:31:18.820Z,5.38
2022-08-23T12:32:39.353Z,5.60
2022-08-23T12:33:54.069Z,5.40
2022-08-23T12:35:04.479Z,5.72
2022-08-23T12:36:42.239Z,4.85
2022-08-23T12:37:56.259Z,5.50
2022-08-23T12:39:09.241Z,6.65
2022-08-23T12:40:25.854Z,5.30
2022-08-23T12:41:32.946Z,7.28
2022-08-23T12:42:38.437Z,6.50
2022-08-23T12:43:59.615Z,5.05
2022-08-23T12:45:23.083Z,5.28
2022-08-23T12:46:33.424Z,5.43
2022-08-23T12:47:38.546Z,6.57
2022-08-23T12:48:47.348Z,5.15
2022-08-23T12:50:12.377Z,6.30
2022-08-23T12:51:14.358Z,5.13
2022-08-23T12:52:16.239Z,6.07
2022-08-23T12:53:33.134Z,5.15
2022-08-23T12:54:46.503Z,4.40
2022-08-23T12:55:51.391Z,5.68
2022-08-23T12:56:54.859Z,7.07
2022-08-23T12:57:58.173Z,4.80
2022-08-23T12:59:04.845Z,4.20
2022-08-23T13:00:24.576Z,5.25
2022-08-23T13:01:31.353Z,8.10
2022-08-23T13:02:37.357Z,5.20
2022-08-23T13:03:47.430Z,4.75
2022-08-23T13:04:49.334Z,5.93
2022-08-23T13:05:57.909Z,6.00
2022-08-23T13:07:08.223Z,5.40
2022-08-23T13:08:27.484Z,4.30
2022-08-23T13:09:40.409Z,6.93
2022-08-23T13:10:46.378Z,5.10
2022-08-23T13:11:49.176Z,4.63
2022-08-23T13:12:53.132Z,6.15
2022-08-23T13:13:56.463Z,5.22
2022-08-23T13:15:01.876Z,5.97
2022-08-23T13:16:37.984Z,5.18
2022-08-23T13:17:39.895Z,5.70
2022-08-23T13:18:43.326Z,6.15
2022-08-23T13:19:47.502Z,6.60
2022-08-23T13:20:49.262Z,4.70
2022-08-23T13:22:26.154Z,4.93
2022-08-23T13:23:31.045Z,5.55
2022-08-23T13:24:45.337Z,4.10
2022-08-23T13:25:47.158Z,5.40
2022-08-23T13:26:49.459Z,5.53
2022-08-23T13:27:55.520Z,5.15
2022-08-23T13:29:08.465Z,5.38
2022-08-23T13:30:12.872Z,4.72
2022-08-23T13:31:14.701Z,4.70
2022-08-23T13:32:30.437Z,6.38
2022-08-23T13:33:32.638Z,6.15
2022-08-23T13:34:48.746Z,5.15
2022-08-23T13:36:13.038Z,4.78
2022-08-23T13:37:30.316Z,6.45
2022-08-23T13:38:33.392Z,5.15
2022-08-23T13:39:37.497Z,5.97
2022-08-23T13:40:58.030Z,4.90
2022-08-23T13:42:00.094Z,4.90
2022-08-23T13:43:05.585Z,5.38
2022-08-23T13:44:14.597Z,5.32
2022-08-23T13:45:30.843Z,5.72
2022-08-23T13:46:36.502Z,6.18
2022-08-23T13:47:38.891Z,6.78
2022-08-23T13:48:56.618Z,5.80
2022-08-23T13:50:00.051Z,5.72
2022-08-23T13:51:38.772Z,5.35
2022-08-23T13:53:03.210Z,4.93
2022-08-23T13:54:17.066Z,5.55
2022-08-23T13:55:18.806Z,5.50
2022-08-23T13:56:21.346Z,5.35
2022-08-23T13:57:27.369Z,6.47
2022-08-23T13:58:34.498Z,5.10
2022-08-23T13:59:39.779Z,5.93
2022-08-23T14:00:45.739Z,5.20
2022-08-23T14:02:01.552Z,7.82
2022-08-23T14:03:05.163Z,4.75
2022-08-23T14:04:07.783Z,5.45
2022-08-23T14:05:10.136Z,5.53
2022-08-23T14:06:12.090Z,4.65
2022-08-23T14:07:15.124Z,4.88
2022-08-23T14:08:17.250Z,5.10
2022-08-23T14:09:19.737Z,5.55
2022-08-23T14:10:24.291Z,6.20
2022-08-23T14:11:26.219Z,4.80
2022-08-23T14:12:31.576Z,6.32
2022-08-23T14:13:36.709Z,5.15
2022-08-23T14:14:39.062Z,5.88
2022-08-23T14:16:32.217Z,4.13
2022-08-23T14:17:05.948Z,5.65
2022-08-23T14:18:12.754Z,5.20
2022-08-23T14:19:18.058Z,6.13
2022-08-23T14:20:46.447Z,5.25
2022-08-23T14:21:48.423Z,5.78
2022-08-23T14:22:50.198Z,4.85
2022-08-23T14:23:51.954Z,5.25
2022-08-23T14:24:53.627Z,5.15
2022-08-23T14:25:56.798Z,5.88
2022-08-23T14:26:58.945Z,6.65
2022-08-23T14:28:00.677Z,5.90
2022-08-23T14:29:02.751Z,5.10
2022-08-23T14:30:05.813Z,5.65
2022-08-23T14:31:07.576Z,5.10
2022-08-23T14:32:09.362Z,5.22
2022-08-23T14:33:11.144Z,5.15
2022-08-23T14:34:13.121Z,6.65
2022-08-23T14:35:16.384Z,5.47
2022-08-23T14:36:18.624Z,7.30
2022-08-23T14:38:45.648Z,6.25
2022-08-23T14:39:52.305Z,5.50
2022-08-23T14:40:58.265Z,5.10
2022-08-23T14:42:00.375Z,4.95
2022-08-23T14:43:02.850Z,6.15
2022-08-23T14:44:04.990Z,3.75
2022-08-23T14:45:07.986Z,5.60
2022-08-23T14:46:09.946Z,6.40
2022-08-23T14:47:11.659Z,5.80
2022-08-23T14:48:13.704Z,5.82
2022-08-23T14:49:15.599Z,6.68
2022-08-23T14:50:19.055Z,5.13
2022-08-23T14:51:25.813Z,6.75
2022-08-23T14:52:27.925Z,6.82
2022-08-23T14:53:34.182Z,5.55
2022-08-23T14:54:36.443Z,6.45
2022-08-23T14:55:38.525Z,5.85
2022-08-23T14:56:40.693Z,6.20
2022-08-23T14:57:42.727Z,5.25
2022-08-23T14:58:44.827Z,5.30
2022-08-23T14:59:46.813Z,6.07
2022-08-23T15:00:49.017Z,7.38
2022-08-23T15:01:53.275Z,5.82